Time;durP1;ratioP1;P1;durP2;ratioP2;P2;SDS_P1;SDS_P2;PMS_P1;PMS_P2;Temp;Humidity;BMP_temperature;BMP_pressure;BME280_temperature;BME280_humidity;BME280_pressure;Samples;Min_cycle;Max_cycle;Signal;HPM_P1;HPM_P2
2022/02/05 00:02:45;;;;;;;10.13;2.97;;;5.80;99.90;;;;;;4956025;29;20234;-82
2022/02/05 00:05:13;;;;;;;6.73;4.23;;;5.80;99.90;;;;;;4939092;29;20214;-82
2022/02/05 00:07:45;;;;;;;8.27;3.23;;;5.80;99.90;;;;;;4938516;29;20556;-82
2022/02/05 00:12:52;;;;;;;7.27;2.73;;;5.60;99.90;;;;;;4955973;29;20171;-82
2022/02/05 00:15:29;;;;;;;10.47;3.10;;;5.60;99.90;;;;;;4938725;29;20179;-82
2022/02/05 00:40:10;;;;;;;8.53;3.10;;;5.60;99.90;;;;;;4955734;29;20534;-81
2022/02/05 00:42:40;;;;;;;9.60;3.07;;;5.50;99.90;;;;;;4938184;29;20262;-81
2022/02/05 00:45:09;;;;;;;13.17;2.67;;;5.50;99.90;;;;;;4938051;29;20172;-81
2022/02/05 00:47:39;;;;;;;10.33;3.33;;;5.50;99.90;;;;;;4937832;29;20187;-82
2022/02/05 00:50:09;;;;;;;8.67;3.17;;;5.40;99.90;;;;;;4938004;29;20194;-82
2022/02/05 00:52:34;;;;;;;9.10;2.87;;;5.40;99.90;;;;;;4937801;29;20703;-81
2022/02/05 00:55:08;;;;;;;9.67;2.70;;;5.40;99.90;;;;;;4938034;29;20244;-81
2022/02/05 00:57:45;;;;;;;10.93;3.60;;;5.30;99.90;;;;;;4937836;29;20277;-81
2022/02/05 01:00:15;;;;;;;8.00;2.37;;;5.20;99.90;;;;;;4937765;29;20655;-82
2022/02/05 01:02:41;;;;;;;6.67;2.83;;;5.20;99.90;;;;;;4937823;29;20231;-82
2022/02/05 01:05:07;;;;;;;8.17;2.90;;;5.20;99.90;;;;;;4937433;29;20183;-82
2022/02/05 01:07:33;;;;;;;6.97;2.50;;;5.30;99.90;;;;;;4937814;29;20201;-82
2022/02/05 01:09:58;;;;;;;7.03;2.80;;;5.30;99.90;;;;;;4937753;29;20661;-82
2022/02/05 01:12:26;;;;;;;9.23;2.90;;;5.30;99.90;;;;;;4937020;29;20183;-81
2022/02/05 01:14:55;;;;;;;8.53;2.70;;;5.30;99.90;;;;;;4954395;29;20206;-81
2022/02/05 01:17:29;;;;;;;7.13;2.73;;;5.30;99.90;;;;;;4937707;29;20179;-81
2022/02/05 01:23:01;;;;;;;11.33;3.33;;;5.30;99.90;;;;;;4895241;29;20172;-82
2022/02/05 01:25:32;;;;;;;7.80;2.80;;;5.20;99.90;;;;;;4930669;29;20218;-81
2022/02/05 01:28:05;;;;;;;8.63;3.30;;;5.20;99.90;;;;;;4937147;29;20198;-81
2022/02/05 01:30:35;;;;;;;7.97;3.23;;;5.20;99.90;;;;;;4937171;29;20595;-82
2022/02/05 01:55:04;;;;;;;11.03;3.27;;;5.20;99.90;;;;;;4954466;29;20183;-83
2022/02/05 02:05:56;;;;;;;5.33;2.20;;;5.00;99.90;;;;;;4954849;29;20202;-81
2022/02/05 02:11:25;;;;;;;9.27;2.73;;;5.00;99.90;;;;;;4954463;29;20195;-81
2022/02/05 02:14:20;;;;;;;10.70;2.97;;;5.10;99.90;;;;;;4936607;29;20210;-80
2022/02/05 02:22:15;;;;;;;10.83;2.93;;;5.00;99.90;;;;;;4954196;29;20274;-80
2022/02/05 02:27:22;;;;;;;11.07;2.70;;;5.00;99.90;;;;;;4957507;29;20187;-83
2022/02/05 02:30:01;;;;;;;8.97;2.47;;;5.10;99.90;;;;;;4957863;29;20274;-81
2022/02/05 02:32:27;;;;;;;9.33;2.60;;;5.10;99.90;;;;;;4956837;29;20183;-81
2022/02/05 02:34:59;;;;;;;9.27;3.00;;;5.20;99.90;;;;;;4940401;29;20179;-81
2022/02/05 02:37:32;;;;;;;11.97;2.77;;;5.10;99.90;;;;;;4940750;29;20186;-81
2022/02/05 02:42:45;;;;;;;7.20;2.70;;;5.10;99.90;;;;;;4957459;29;20660;-82
2022/02/05 02:45:11;;;;;;;9.03;2.37;;;5.20;99.90;;;;;;4940151;29;20191;-82
2022/02/05 02:47:42;;;;;;;7.47;2.93;;;5.10;99.90;;;;;;4957512;29;20176;-82
2022/02/05 02:58:25;;;;;;;7.73;2.23;;;5.10;99.90;;;;;;4921243;29;20195;-82
2022/02/05 03:00:56;;;;;;;6.57;2.33;;;5.10;99.90;;;;;;4940160;29;20559;-81
2022/02/05 03:03:22;;;;;;;10.23;2.80;;;5.10;99.90;;;;;;4940378;29;20187;-81
2022/02/05 03:05:47;;;;;;;8.10;2.70;;;5.20;99.90;;;;;;4940095;29;20262;-82
2022/02/05 03:08:13;;;;;;;6.93;2.43;;;5.20;99.90;;;;;;4939814;29;20346;-80
2022/02/05 03:10:39;;;;;;;12.97;2.70;;;5.20;99.90;;;;;;4939674;29;20239;-79
2022/02/05 03:13:04;;;;;;;12.10;2.73;;;5.20;99.90;;;;;;4939690;29;20652;-82
2022/02/05 03:15:41;;;;;;;8.80;2.80;;;5.20;99.90;;;;;;4939828;29;20190;-82
2022/02/05 03:18:12;;;;;;;7.77;2.27;;;5.20;99.90;;;;;;4939724;29;20183;-80
2022/02/05 03:20:38;;;;;;;7.70;2.43;;;5.20;99.90;;;;;;4955666;29;20194;-80
2022/02/05 03:23:03;;;;;;;10.40;2.33;;;5.20;99.90;;;;;;4939786;29;20176;-82
2022/02/05 03:25:30;;;;;;;11.27;2.50;;;5.10;99.90;;;;;;4939227;29;20687;-80
2022/02/05 03:27:56;;;;;;;8.53;2.90;;;5.10;99.90;;;;;;4956708;29;20199;-82
2022/02/05 03:30:22;;;;;;;10.13;2.47;;;5.20;99.90;;;;;;4939653;29;20651;-81
2022/02/05 03:32:48;;;;;;;7.27;2.50;;;5.20;99.90;;;;;;4939528;29;20182;-82
2022/02/05 03:35:14;;;;;;;7.20;2.53;;;5.20;99.90;;;;;;4956026;28;20179;-81
2022/02/05 03:37:40;;;;;;;10.73;2.50;;;5.20;99.90;;;;;;4939778;29;20710;-81
2022/02/05 03:40:06;;;;;;;8.87;2.37;;;5.20;99.90;;;;;;4939205;29;20545;-82
2022/02/05 03:42:31;;;;;;;6.93;2.30;;;5.20;99.90;;;;;;4939188;29;20183;-80
2022/02/05 03:44:57;;;;;;;8.20;2.70;;;5.20;99.90;;;;;;4939339;29;20178;-80
2022/02/05 03:47:23;;;;;;;12.30;3.00;;;5.20;99.90;;;;;;4939348;29;20214;-81
2022/02/05 03:49:50;;;;;;;5.63;2.20;;;5.10;99.90;;;;;;4956493;29;20287;-82
2022/02/05 03:52:17;;;;;;;13.63;2.93;;;5.10;99.90;;;;;;4939040;29;20238;-83
2022/02/05 03:54:45;;;;;;;10.63;3.00;;;5.10;99.90;;;;;;4938923;29;20179;-80
2022/02/05 03:57:10;;;;;;;13.67;2.73;;;5.10;99.90;;;;;;4939042;29;20813;-83
2022/02/05 03:59:36;;;;;;;7.70;2.47;;;5.10;99.90;;;;;;4939211;29;20214;-80
2022/02/05 04:02:02;;;;;;;7.83;2.33;;;5.10;99.90;;;;;;4938773;29;20179;-81
2022/02/05 04:04:28;;;;;;;8.97;2.60;;;5.10;99.90;;;;;;4938830;29;20183;-82
2022/02/05 04:06:55;;;;;;;9.57;2.40;;;5.10;99.90;;;;;;4938676;29;20242;-80
2022/02/05 04:09:26;;;;;;;10.10;2.60;;;5.00;99.90;;;;;;4938566;29;20251;-82
2022/02/05 04:15:56;;;;;;;9.10;3.00;;;5.00;99.90;;;;;;4955949;29;20181;-80
2022/02/05 04:17:28;;;;;;;10.37;2.90;;;5.10;99.90;;;;;;4956192;29;20206;-80
2022/02/05 04:19:53;;;;;;;9.93;2.17;;;5.10;99.90;;;;;;4956095;29;20199;-83
2022/02/05 04:22:19;;;;;;;8.57;2.20;;;5.10;99.90;;;;;;4956004;29;20191;-82
2022/02/05 04:24:45;;;;;;;13.80;2.67;;;5.10;99.90;;;;;;4938435;29;20190;-81
2022/02/05 04:27:10;;;;;;;8.10;2.07;;;5.10;99.90;;;;;;4955498;29;20187;-80
2022/02/05 04:29:37;;;;;;;11.27;2.37;;;5.10;99.90;;;;;;4938453;29;20219;-80
2022/02/05 04:32:03;;;;;;;12.23;3.13;;;5.10;99.90;;;;;;4955626;29;20540;-80
2022/02/05 04:34:29;;;;;;;11.10;2.20;;;5.00;99.90;;;;;;4955561;29;20184;-81
2022/02/05 04:36:55;;;;;;;8.63;2.30;;;5.00;99.90;;;;;;4938187;29;20179;-80
2022/02/05 04:39:22;;;;;;;10.60;3.27;;;5.00;99.90;;;;;;4955258;29;20183;-80
2022/02/05 04:41:56;;;;;;;6.93;2.10;;;5.00;99.90;;;;;;4938266;29;20179;-80
2022/02/05 04:56:01;;;;;;;11.03;3.40;;;4.90;99.90;;;;;;4955473;29;20190;-81
2022/02/05 05:21:23;;;;;;;8.77;2.33;;;4.80;99.90;;;;;;4954756;29;20584;-80
2022/02/05 05:23:49;;;;;;;11.20;2.50;;;4.80;99.90;;;;;;4937543;29;20207;-80
2022/02/05 05:26:15;;;;;;;8.37;2.37;;;4.70;99.90;;;;;;4937671;29;20179;-80
2022/02/05 05:28:40;;;;;;;12.03;2.83;;;4.70;99.90;;;;;;4937157;29;20668;-80
2022/02/05 05:31:06;;;;;;;12.57;2.77;;;4.70;99.90;;;;;;4937260;29;20186;-80
2022/02/05 05:33:31;;;;;;;11.67;2.47;;;4.70;99.90;;;;;;4937365;29;20198;-81
2022/02/05 05:35:57;;;;;;;11.77;2.63;;;4.70;99.90;;;;;;4954759;29;20756;-80
2022/02/05 05:38:23;;;;;;;10.43;2.80;;;4.70;99.90;;;;;;4937325;29;20183;-79
2022/02/05 05:40:48;;;;;;;12.10;2.87;;;4.70;99.90;;;;;;4937489;29;20187;-80
2022/02/05 05:43:25;;;;;;;11.30;2.80;;;4.70;99.90;;;;;;4937120;29;20187;-80
2022/02/05 05:48:57;;;;;;;10.20;2.97;;;4.70;99.90;;;;;;4954580;29;20266;-82
2022/02/05 05:51:23;;;;;;;15.77;2.77;;;4.60;99.90;;;;;;4937062;29;20259;-82
2022/02/05 05:53:49;;;;;;;13.63;3.20;;;4.60;99.90;;;;;;4953116;29;20605;-82
2022/02/05 05:56:19;;;;;;;8.03;2.83;;;4.50;99.90;;;;;;4937146;29;20175;-82
2022/02/05 05:58:44;;;;;;;9.27;2.37;;;4.50;99.90;;;;;;4954804;28;20175;-82
2022/02/05 06:01:10;;;;;;;13.63;2.83;;;4.60;99.90;;;;;;4958317;29;20679;-82
2022/02/05 06:03:38;;;;;;;8.63;2.53;;;4.60;99.90;;;;;;4941100;29;20193;-82
2022/02/05 06:06:03;;;;;;;11.83;2.87;;;4.60;99.90;;;;;;4940820;29;20194;-82
2022/02/05 06:08:29;;;;;;;11.33;2.20;;;4.60;99.90;;;;;;4940912;29;20218;-81
2022/02/05 06:10:54;;;;;;;15.70;2.93;;;4.60;99.90;;;;;;4940846;29;20179;-82
2022/02/05 06:13:20;;;;;;;10.30;2.57;;;4.60;99.90;;;;;;4940589;29;20667;-81
2022/02/05 06:15:47;;;;;;;15.20;2.77;;;4.60;99.90;;;;;;4940802;29;20175;-81
2022/02/05 06:18:12;;;;;;;15.13;3.60;;;4.60;99.90;;;;;;4957111;29;20587;-82
2022/02/05 06:20:39;;;;;;;10.10;2.50;;;4.60;99.90;;;;;;4940641;29;20179;-81
2022/02/05 06:23:04;;;;;;;16.07;3.40;;;4.50;99.90;;;;;;4956702;29;20262;-79
2022/02/05 06:25:33;;;;;;;9.00;3.30;;;4.50;99.90;;;;;;4940650;29;20640;-82
2022/02/05 06:27:59;;;;;;;20.53;3.23;;;4.60;99.90;;;;;;4940521;29;20262;-82
2022/02/05 06:30:25;;;;;;;12.87;3.07;;;4.70;99.90;;;;;;4956452;29;20720;-82
2022/02/05 06:32:50;;;;;;;12.53;3.43;;;4.60;99.90;;;;;;4940683;29;20262;-82
2022/02/05 06:35:16;;;;;;;16.67;3.17;;;4.60;99.90;;;;;;4956161;29;20632;-81
2022/02/05 06:37:42;;;;;;;13.43;2.70;;;4.60;99.90;;;;;;4940614;29;20179;-82
2022/02/05 06:40:09;;;;;;;13.60;2.93;;;4.60;99.90;;;;;;4956146;29;20262;-81
2022/02/05 06:42:35;;;;;;;7.17;2.77;;;4.60;99.90;;;;;;4940403;29;20528;-82
2022/02/05 06:45:02;;;;;;;11.70;2.87;;;4.60;99.90;;;;;;4940434;29;20195;-82
2022/02/05 06:47:27;;;;;;;14.70;3.40;;;4.60;99.90;;;;;;4957689;29;20659;-82
2022/02/05 06:49:53;;;;;;;14.20;3.50;;;4.60;99.90;;;;;;4940174;29;20223;-81
2022/02/05 06:52:18;;;;;;;12.90;3.13;;;4.50;99.90;;;;;;4940343;29;20275;-81
2022/02/05 06:54:44;;;;;;;11.97;2.53;;;4.50;99.90;;;;;;4956059;29;20262;-81
2022/02/05 06:57:09;;;;;;;11.57;3.33;;;4.50;99.90;;;;;;4939953;29;20180;-82
2022/02/05 06:59:35;;;;;;;14.00;3.27;;;4.50;99.90;;;;;;4940277;29;20168;-82
2022/02/05 07:02:01;;;;;;;12.13;2.97;;;4.50;99.90;;;;;;4940027;29;20179;-82
2022/02/05 07:04:27;;;;;;;18.17;5.03;;;4.50;99.90;;;;;;4939685;29;20191;-81
2022/02/05 07:06:56;;;;;;;13.03;2.50;;;4.50;99.90;;;;;;4939842;29;20589;-82
2022/02/05 07:09:23;;;;;;;8.33;3.17;;;4.50;99.90;;;;;;4939281;29;20211;-82
2022/02/05 07:11:51;;;;;;;12.47;2.53;;;4.50;99.90;;;;;;4939482;29;20183;-82
2022/02/05 07:14:19;;;;;;;9.17;2.53;;;4.50;99.90;;;;;;4939725;29;20234;-82
2022/02/05 07:16:54;;;;;;;12.37;2.83;;;4.50;99.90;;;;;;4939687;29;20213;-82
2022/02/05 07:19:46;;;;;;;12.20;3.63;;;4.60;99.90;;;;;;4957227;29;20211;-82
2022/02/05 07:22:12;;;;;;;16.67;3.00;;;4.60;99.90;;;;;;4938569;29;20186;-82
2022/02/05 07:30:00;;;;;;;13.27;4.80;;;4.70;99.90;;;;;;4953365;29;20222;-81
2022/02/05 07:32:25;;;;;;;13.93;2.93;;;4.50;99.90;;;;;;4940440;29;20179;-83
2022/02/05 07:34:51;;;;;;;8.40;2.33;;;4.40;99.90;;;;;;4949501;29;20663;-81
2022/02/05 07:37:17;;;;;;;9.67;2.77;;;4.30;99.90;;;;;;4949297;29;20545;-81
2022/02/05 07:39:47;;;;;;;14.47;3.10;;;4.30;99.90;;;;;;4950037;29;20180;-80
2022/02/05 07:42:14;;;;;;;13.73;3.90;;;4.30;99.90;;;;;;4944319;29;20176;-81
2022/02/05 07:44:40;;;;;;;14.50;3.00;;;4.40;99.90;;;;;;4949138;29;20176;-81
2022/02/05 07:47:07;;;;;;;8.80;2.13;;;4.40;99.90;;;;;;4945288;29;20667;-83
2022/02/05 07:49:39;;;;;;;12.80;3.47;;;4.40;99.90;;;;;;4928033;29;20212;-80
2022/02/05 07:52:05;;;;;;;11.33;3.27;;;4.30;99.90;;;;;;4945335;29;20235;-81
2022/02/05 07:54:32;;;;;;;15.07;3.30;;;4.40;99.90;;;;;;4934956;29;20199;-80
2022/02/05 07:56:58;;;;;;;18.33;2.70;;;4.40;99.90;;;;;;4937193;29;20184;-81
2022/02/05 07:59:23;;;;;;;14.03;3.27;;;4.40;99.90;;;;;;4935969;29;20172;-82
2022/02/05 08:01:49;;;;;;;12.40;2.93;;;4.40;99.90;;;;;;4935599;29;20191;-81
2022/02/05 08:04:15;;;;;;;12.70;3.00;;;4.40;99.90;;;;;;4935829;29;20666;-83
2022/02/05 08:06:42;;;;;;;9.47;3.13;;;4.40;99.90;;;;;;4935814;29;20208;-82
2022/02/05 08:09:30;;;;;;;9.70;3.20;;;4.30;99.90;;;;;;4935702;29;20207;-82
2022/02/05 08:12:05;;;;;;;14.60;3.40;;;4.40;99.90;;;;;;4935568;29;20658;-82
2022/02/05 08:14:34;;;;;;;10.83;3.40;;;4.30;99.90;;;;;;4936981;29;20827;-82
2022/02/05 08:17:03;;;;;;;14.97;3.23;;;4.40;99.90;;;;;;4936653;29;20184;-81
2022/02/05 08:19:31;;;;;;;18.73;3.43;;;4.40;99.90;;;;;;4944383;29;20175;-80
2022/02/05 08:21:58;;;;;;;9.93;2.57;;;4.40;99.90;;;;;;4943906;29;20172;-82
2022/02/05 08:24:23;;;;;;;12.63;3.40;;;4.40;99.90;;;;;;4944537;29;20287;-82
2022/02/05 08:26:50;;;;;;;10.80;3.50;;;4.40;99.90;;;;;;4945637;29;20262;-80
2022/02/05 08:29:17;;;;;;;12.50;3.60;;;4.40;99.90;;;;;;4945176;29;20289;-79
2022/02/05 08:31:43;;;;;;;11.37;3.20;;;4.50;99.90;;;;;;4946041;29;20260;-82
2022/02/05 08:34:09;;;;;;;11.47;3.17;;;4.50;99.90;;;;;;4927976;29;20218;-82
2022/02/05 08:36:46;;;;;;;13.43;3.50;;;4.50;99.90;;;;;;4945488;29;20238;-82
2022/02/05 08:39:14;;;;;;;10.27;3.23;;;4.60;99.90;;;;;;4940366;29;20187;-81
2022/02/05 08:41:40;;;;;;;12.10;3.63;;;4.60;99.90;;;;;;4935276;29;20612;-82
2022/02/05 08:44:06;;;;;;;13.53;3.00;;;4.70;99.90;;;;;;4934721;29;20274;-81
2022/02/05 08:46:32;;;;;;;15.50;3.30;;;4.70;99.90;;;;;;4935354;29;20187;-82
2022/02/05 08:48:58;;;;;;;11.43;3.17;;;4.70;99.90;;;;;;4934984;29;20212;-82
2022/02/05 08:51:24;;;;;;;13.33;3.97;;;4.80;99.90;;;;;;4936337;29;20180;-81
2022/02/05 08:53:49;;;;;;;10.93;2.87;;;4.80;99.90;;;;;;4935033;29;20191;-82
2022/02/05 08:56:16;;;;;;;12.43;3.20;;;4.80;99.90;;;;;;4934980;29;20180;-81
2022/02/05 08:58:43;;;;;;;13.83;3.40;;;4.80;99.90;;;;;;4935930;29;20576;-81
2022/02/05 09:01:15;;;;;;;17.63;3.20;;;4.90;99.90;;;;;;4936256;29;20271;-82
2022/02/05 09:04:00;;;;;;;10.33;3.20;;;4.90;99.90;;;;;;4934854;29;20218;-82
2022/02/05 09:06:29;;;;;;;11.53;3.30;;;5.00;99.90;;;;;;4934908;29;20210;-82
2022/02/05 09:09:08;;;;;;;10.00;3.70;;;5.00;99.90;;;;;;4934937;29;20224;-80
2022/02/05 09:11:51;;;;;;;13.20;2.73;;;5.00;99.90;;;;;;4934752;29;20184;-82
2022/02/05 09:14:29;;;;;;;15.73;3.23;;;5.10;99.90;;;;;;4934004;29;20656;-82
2022/02/05 09:16:55;;;;;;;13.03;4.57;;;5.00;99.90;;;;;;4934397;29;20331;-82
2022/02/05 09:19:21;;;;;;;12.80;3.70;;;5.10;99.90;;;;;;4934627;29;20271;-79
2022/02/05 09:21:47;;;;;;;13.10;3.03;;;5.20;99.90;;;;;;4934652;29;20199;-82
2022/02/05 09:24:13;;;;;;;9.37;3.00;;;5.30;99.90;;;;;;4935529;29;20293;-82
2022/02/05 09:26:43;;;;;;;15.27;2.77;;;5.30;99.90;;;;;;4934591;29;20186;-82
2022/02/05 09:29:19;;;;;;;12.27;3.40;;;5.40;99.90;;;;;;4934131;29;20297;-81
2022/02/05 09:31:46;;;;;;;11.67;2.80;;;5.50;99.90;;;;;;4935852;29;20160;-82
2022/02/05 09:34:12;;;;;;;16.17;4.13;;;5.60;99.90;;;;;;4933603;29;20180;-82
2022/02/05 09:36:42;;;;;;;11.33;2.90;;;5.50;99.90;;;;;;4918862;29;20525;-82
2022/02/05 09:39:10;;;;;;;16.87;2.83;;;5.40;99.90;;;;;;4933427;29;20263;-82
2022/02/05 09:41:37;;;;;;;11.50;3.23;;;5.40;99.90;;;;;;4934138;29;20280;-82
2022/02/05 09:44:04;;;;;;;10.93;3.30;;;5.60;99.90;;;;;;4934170;29;20180;-81
2022/02/05 09:46:30;;;;;;;10.30;2.93;;;5.70;99.90;;;;;;4934381;29;20183;-82
2022/02/05 09:48:58;;;;;;;8.50;2.70;;;5.80;99.90;;;;;;4934477;29;20215;-82
2022/02/05 09:51:32;;;;;;;8.93;2.10;;;5.80;99.90;;;;;;4937943;29;20716;-87
2022/02/05 09:54:03;;;;;;;7.57;3.07;;;5.80;99.90;;;;;;4934587;28;20178;-88
2022/02/05 09:56:35;;;;;;;9.20;2.70;;;5.90;99.90;;;;;;4973399;28;20185;-88
2022/02/05 09:59:02;;;;;;;13.03;2.70;;;6.00;99.90;;;;;;4957597;28;20182;-88
2022/02/05 10:01:32;;;;;;;12.00;2.90;;;6.00;99.90;;;;;;4957504;28;20174;-88
2022/02/05 10:03:58;;;;;;;6.53;2.20;;;6.10;99.90;;;;;;4974636;28;20182;-87
2022/02/05 10:06:28;;;;;;;11.93;2.63;;;6.20;99.90;;;;;;4974914;28;20190;-87
2022/02/05 10:09:09;;;;;;;10.30;2.63;;;6.30;99.90;;;;;;4973294;28;20285;-87
2022/02/05 10:12:02;;;;;;;11.43;2.53;;;6.30;99.90;;;;;;4957193;28;20215;-87
2022/02/05 10:14:32;;;;;;;11.87;2.40;;;6.30;99.90;;;;;;4957495;28;20217;-86
2022/02/05 10:17:00;;;;;;;15.17;3.40;;;6.30;99.90;;;;;;4974283;28;20178;-88
2022/02/05 10:19:51;;;;;;;8.43;2.20;;;6.20;99.90;;;;;;4974718;28;20178;-87
2022/02/05 10:22:19;;;;;;;9.37;2.40;;;6.10;99.90;;;;;;4947093;28;20183;-87
2022/02/05 10:24:53;;;;;;;12.70;2.40;;;6.20;99.90;;;;;;4954120;29;20263;-87
2022/02/05 10:27:27;;;;;;;6.30;2.20;;;6.30;99.90;;;;;;4937828;29;20699;-87
2022/02/05 10:30:11;;;;;;;17.40;2.93;;;6.40;99.90;;;;;;4955092;29;20225;-85
2022/02/05 10:32:44;;;;;;;9.10;2.60;;;6.50;99.90;;;;;;4954072;29;20183;-87
2022/02/05 10:35:25;;;;;;;12.60;2.77;;;6.60;99.90;;;;;;4954178;29;20180;-88
2022/02/05 10:38:15;;;;;;;9.57;2.80;;;6.70;99.90;;;;;;4955663;29;20204;-86
2022/02/05 10:40:48;;;;;;;10.07;2.70;;;6.80;99.90;;;;;;4954761;29;20183;-87
2022/02/05 10:43:30;;;;;;;10.53;3.20;;;6.90;99.90;;;;;;4938102;29;20271;-87
2022/02/05 10:45:55;;;;;;;11.03;2.40;;;7.00;99.90;;;;;;4957936;28;20644;-87
2022/02/05 10:48:23;;;;;;;9.73;2.43;;;6.90;99.90;;;;;;4957754;29;20214;-87
2022/02/05 10:50:53;;;;;;;6.53;2.17;;;7.00;99.90;;;;;;4957445;29;20221;-88
2022/02/05 10:56:02;;;;;;;8.93;2.63;;;7.90;99.90;;;;;;4958097;29;20187;-86
2022/02/05 11:07:08;;;;;;;12.13;3.10;;;11.00;99.90;;;;;;4939250;29;20270;-86
2022/02/05 11:09:44;;;;;;;8.97;2.23;;;11.40;99.90;;;;;;4937718;29;20359;-85
2022/02/05 11:20:29;;;;;;;12.03;2.83;;;13.00;99.90;;;;;;4939244;29;20622;-85
2022/02/05 11:22:59;;;;;;;7.17;2.00;;;13.50;99.70;;;;;;4946277;29;20187;-85
2022/02/05 11:25:30;;;;;;;9.97;2.83;;;14.00;99.30;;;;;;4937347;29;20211;-87
2022/02/05 11:27:57;;;;;;;10.40;2.77;;;14.50;97.90;;;;;;4937506;29;20191;-86
2022/02/05 11:30:46;;;;;;;10.40;2.60;;;14.50;97.60;;;;;;4937380;29;20302;-85
2022/02/05 11:33:30;;;;;;;10.67;2.70;;;14.40;97.60;;;;;;4944431;29;20190;-86
2022/02/05 11:38:42;;;;;;;7.77;2.30;;;14.40;96.50;;;;;;4957678;29;20269;-87
2022/02/05 11:41:29;;;;;;;9.63;2.47;;;14.40;96.40;;;;;;4956729;29;20281;-86
2022/02/05 11:44:17;;;;;;;5.17;2.13;;;14.90;96.00;;;;;;4957178;29;20170;-86
2022/02/05 11:47:06;;;;;;;6.67;2.10;;;14.80;96.00;;;;;;4956184;29;20186;-86
2022/02/05 11:50:00;;;;;;;10.53;2.40;;;15.40;95.40;;;;;;4940460;29;20586;-86
2022/02/05 11:52:39;;;;;;;7.93;2.50;;;14.90;94.90;;;;;;4918257;29;20606;-86
2022/02/05 11:55:08;;;;;;;6.97;2.63;;;14.60;95.10;;;;;;4940758;29;20223;-86
2022/02/05 11:57:44;;;;;;;8.63;2.50;;;14.30;95.60;;;;;;4939447;29;20182;-86
2022/02/05 12:00:19;;;;;;;9.70;2.10;;;14.40;95.50;;;;;;4940298;29;20188;-86
2022/02/05 12:03:10;;;;;;;6.47;2.00;;;14.60;95.20;;;;;;4955999;29;20215;-86
2022/02/05 12:05:48;;;;;;;7.83;2.77;;;14.80;95.10;;;;;;4957462;29;20177;-85
2022/02/05 12:08:14;;;;;;;6.57;2.03;;;15.50;94.00;;;;;;4956720;29;20221;-85
2022/02/05 12:10:50;;;;;;;6.77;2.40;;;15.70;93.70;;;;;;4940253;29;20293;-86
2022/02/05 12:13:27;;;;;;;8.93;2.37;;;14.80;94.20;;;;;;4956902;29;20285;-86
2022/02/05 12:15:59;;;;;;;13.87;2.80;;;15.10;94.30;;;;;;4939791;29;20197;-86
2022/02/05 12:18:28;;;;;;;11.27;2.53;;;14.80;94.30;;;;;;4939647;29;20228;-88
2022/02/05 12:23:31;;;;;;;12.57;2.63;;;14.70;94.70;;;;;;4956730;29;20174;-89
2022/02/05 12:26:00;;;;;;;9.93;2.10;;;14.80;94.60;;;;;;4956028;29;20188;-87
2022/02/05 12:28:36;;;;;;;8.03;2.20;;;15.40;94.20;;;;;;4956835;29;20203;-87
2022/02/05 12:31:18;;;;;;;11.60;2.20;;;15.50;93.90;;;;;;4956829;29;20173;-86
2022/02/05 12:33:52;;;;;;;10.73;2.20;;;15.40;94.00;;;;;;4956392;29;20196;-85
2022/02/05 12:36:41;;;;;;;7.13;2.17;;;15.20;93.80;;;;;;4955447;29;20193;-87
2022/02/05 12:39:16;;;;;;;11.10;3.00;;;14.70;94.50;;;;;;4955906;29;20185;-87
2022/02/05 12:41:54;;;;;;;10.07;2.67;;;15.00;94.20;;;;;;4955769;29;20273;-86
2022/02/05 12:44:21;;;;;;;12.10;3.83;;;15.80;93.70;;;;;;4955632;29;20242;-86
2022/02/05 12:46:54;;;;;;;7.40;2.70;;;16.40;92.70;;;;;;4955354;29;20182;-86
2022/02/05 12:49:25;;;;;;;11.67;2.43;;;16.30;92.70;;;;;;4955408;29;20225;-86
2022/02/05 12:51:57;;;;;;;8.37;2.10;;;16.70;92.10;;;;;;4956288;29;20166;-86
2022/02/05 12:54:28;;;;;;;8.17;2.00;;;17.00;91.10;;;;;;4955177;29;20199;-85
2022/02/05 12:56:55;;;;;;;6.20;2.10;;;16.80;91.20;;;;;;4954996;29;20260;-86
2022/02/05 12:59:31;;;;;;;6.30;1.87;;;16.40;91.50;;;;;;4946133;29;20283;-86
2022/02/05 13:02:08;;;;;;;6.97;2.03;;;15.90;92.00;;;;;;4943701;29;20632;-87
2022/02/05 13:04:42;;;;;;;6.43;1.33;;;16.00;91.00;;;;;;4939132;29;20182;-86
2022/02/05 13:07:18;;;;;;;9.17;2.07;;;15.30;91.70;;;;;;4955703;28;20210;-86
2022/02/05 13:09:50;;;;;;;6.77;2.20;;;16.00;91.00;;;;;;4949178;29;20202;-86
2022/02/05 13:12:27;;;;;;;7.70;1.80;;;16.60;90.70;;;;;;4948991;29;20193;-86
2022/02/05 13:15:04;;;;;;;8.33;1.63;;;16.40;90.10;;;;;;4938839;29;20655;-87
2022/02/05 13:17:47;;;;;;;9.73;2.23;;;16.40;90.40;;;;;;4938818;29;20185;-86
2022/02/05 13:26:28;;;;;;;8.80;1.83;;;16.10;90.40;;;;;;4955884;29;20190;-86
2022/02/05 13:34:26;;;;;;;9.80;1.80;;;13.30;93.40;;;;;;4969832;28;20258;-86
2022/02/05 13:37:17;;;;;;;12.83;1.77;;;12.70;94.30;;;;;;4957623;28;20282;-86
2022/02/05 15:48:44;;;;;;;9.13;1.93;;;9.70;99.90;;;;;;4994081;28;20691;-91
2022/02/05 15:51:13;;;;;;;10.43;2.10;;;9.70;99.90;;;;;;4963152;28;20635;-91
2022/02/05 15:53:47;;;;;;;10.23;2.50;;;9.70;99.90;;;;;;4959918;28;20189;-92
2022/02/05 15:56:58;;;;;;;7.23;2.13;;;9.80;99.90;;;;;;4959933;28;20283;-92
2022/02/05 15:59:12;;;;;;;9.03;2.50;;;9.60;99.90;;;;;;4981697;28;20189;-92
2022/02/05 16:01:39;;;;;;;6.87;2.10;;;9.70;99.90;;;;;;4979293;28;20221;-91
2022/02/05 16:04:07;;;;;;;10.80;3.27;;;9.60;99.90;;;;;;4979103;28;20267;-89
2022/02/05 16:06:34;;;;;;;11.93;3.43;;;9.50;99.90;;;;;;4978601;28;20219;-91
2022/02/05 16:09:03;;;;;;;9.23;2.27;;;9.50;99.90;;;;;;4971075;28;20208;-90
2022/02/05 16:11:31;;;;;;;11.40;3.37;;;9.40;99.90;;;;;;4971378;28;20265;-91
2022/02/05 16:14:05;;;;;;;11.43;3.43;;;9.50;99.90;;;;;;4993796;28;20190;-91
2022/02/05 16:16:31;;;;;;;11.83;2.43;;;9.40;99.90;;;;;;4998363;28;20277;-91
2022/02/05 16:18:59;;;;;;;6.93;2.03;;;9.30;99.90;;;;;;4993900;28;20270;-92
2022/02/05 16:21:28;;;;;;;9.03;2.37;;;9.20;99.90;;;;;;4998458;28;20222;-91
2022/02/05 16:23:54;;;;;;;12.07;2.60;;;9.30;99.90;;;;;;4998205;28;20607;-89
2022/02/05 16:26:21;;;;;;;8.47;1.70;;;9.40;99.90;;;;;;4998407;28;20209;-88
2022/02/05 16:28:55;;;;;;;10.23;2.10;;;9.30;99.90;;;;;;4982555;28;20208;-93
2022/02/05 16:31:22;;;;;;;6.20;1.93;;;9.20;99.90;;;;;;4978405;28;20177;-90
2022/02/05 16:33:48;;;;;;;11.13;2.00;;;9.20;99.90;;;;;;4978560;28;20182;-91
2022/02/05 16:36:20;;;;;;;10.20;3.47;;;9.30;99.90;;;;;;4978977;28;20171;-92
2022/02/05 16:38:54;;;;;;;14.97;2.60;;;9.30;99.90;;;;;;4978621;28;20207;-91
2022/02/05 16:41:20;;;;;;;12.23;2.70;;;9.30;99.90;;;;;;4989699;28;20864;-91
2022/02/05 16:43:48;;;;;;;6.10;1.40;;;9.20;99.90;;;;;;4997614;28;20193;-93
2022/02/05 16:46:20;;;;;;;11.17;1.80;;;9.20;99.90;;;;;;4997741;28;20192;-92
2022/02/05 16:48:49;;;;;;;10.43;2.40;;;9.00;99.90;;;;;;4997683;28;20666;-92
2022/02/05 16:51:18;;;;;;;8.27;2.00;;;9.00;99.90;;;;;;4987426;28;20741;-92
2022/02/05 16:53:50;;;;;;;10.57;1.83;;;8.90;99.90;;;;;;4978295;28;20232;-92
2022/02/05 16:56:19;;;;;;;7.10;2.13;;;8.90;99.90;;;;;;4978213;28;20208;-91
2022/02/05 16:58:46;;;;;;;9.40;1.63;;;9.00;99.90;;;;;;4978119;28;20207;-91
2022/02/05 17:01:15;;;;;;;7.37;1.80;;;9.00;99.90;;;;;;4978529;28;20189;-91
2022/02/05 17:03:43;;;;;;;11.73;2.40;;;9.00;99.90;;;;;;4991682;28;20199;-90
2022/02/05 17:06:11;;;;;;;10.70;2.13;;;9.00;99.90;;;;;;4997537;28;20167;-91
2022/02/05 17:08:38;;;;;;;8.03;2.50;;;9.10;99.90;;;;;;4997408;28;20232;-91
2022/02/05 17:11:07;;;;;;;7.23;2.47;;;9.10;99.90;;;;;;4981936;28;20656;-90
2022/02/05 17:13:35;;;;;;;7.80;2.47;;;9.10;99.90;;;;;;4977884;28;20208;-91
2022/02/05 17:16:01;;;;;;;8.27;1.97;;;9.10;99.90;;;;;;4981370;28;20170;-92
2022/02/05 17:18:31;;;;;;;6.60;2.07;;;9.20;99.90;;;;;;4997297;28;20184;-92
2022/02/05 17:20:58;;;;;;;8.37;2.20;;;9.20;99.90;;;;;;4997461;28;20637;-92
2022/02/05 17:27:33;;;;;;;8.13;3.80;;;8.90;99.90;;;;;;5014164;28;20165;-92
2022/02/05 18:11:24;;;;;;;11.70;3.37;;;8.80;99.90;;;;;;5173138;23;20274;-85
2022/02/05 18:16:29;;;;;;;11.83;4.40;;;8.90;99.90;;;;;;4974924;28;20603;-87
2022/02/05 18:18:55;;;;;;;15.73;3.40;;;9.00;99.90;;;;;;4952390;28;20179;-86
2022/02/05 18:21:23;;;;;;;9.53;2.93;;;9.00;99.90;;;;;;4957775;28;20187;-86
2022/02/05 18:23:50;;;;;;;9.27;3.50;;;9.00;99.90;;;;;;4957672;28;20222;-86
2022/02/05 18:26:18;;;;;;;12.07;3.70;;;9.00;99.90;;;;;;4951217;28;20219;-87
2022/02/05 18:28:44;;;;;;;8.67;2.97;;;8.90;99.90;;;;;;4945879;29;20293;-87
2022/02/05 18:31:10;;;;;;;9.83;2.70;;;9.00;99.90;;;;;;4950941;28;20186;-87
2022/02/05 18:33:36;;;;;;;8.47;3.00;;;8.90;99.90;;;;;;4949459;28;20169;-87
2022/02/05 18:36:04;;;;;;;11.30;2.97;;;8.90;99.90;;;;;;4950398;28;20210;-87
2022/02/05 18:38:30;;;;;;;8.70;3.33;;;8.90;99.90;;;;;;4947589;28;20175;-88
2022/02/05 18:40:59;;;;;;;10.47;3.40;;;8.90;99.90;;;;;;4949992;28;20189;-87
2022/02/05 18:43:29;;;;;;;8.93;2.63;;;8.90;99.90;;;;;;4945512;28;20197;-86
2022/02/05 18:45:57;;;;;;;8.23;3.50;;;9.00;99.90;;;;;;4942925;28;20183;-87